createdAt,value
2022-09-11T00:02:06.353Z,12.90
2022-09-11T00:05:08.136Z,12.88
2022-09-11T00:08:12.122Z,12.86
2022-09-11T00:11:19.804Z,12.84
2022-09-11T00:14:21.397Z,12.83
2022-09-11T00:17:23.122Z,12.80
2022-09-11T00:20:24.631Z,12.78
2022-09-11T00:23:27.312Z,12.77
2022-09-11T00:26:28.945Z,12.75
2022-09-11T00:29:31.007Z,12.73
2022-09-11T00:32:33.282Z,12.73
2022-09-11T00:35:34.908Z,12.73
2022-09-11T00:38:37.417Z,12.72
2022-09-11T00:41:42.357Z,12.71
2022-09-11T00:44:45.416Z,12.69
2022-09-11T00:47:49.030Z,12.70
2022-09-11T00:50:52.461Z,12.67
2022-09-11T00:53:58.381Z,12.65
2022-09-11T00:57:03.224Z,12.63
2022-09-11T01:00:06.040Z,12.60
2022-09-11T01:03:07.788Z,12.59
2022-09-11T01:06:10.696Z,12.55
2022-09-11T01:09:12.793Z,12.54
2022-09-11T01:12:43.029Z,12.53
2022-09-11T01:16:04.276Z,12.48
2022-09-11T01:19:47.375Z,12.46
2022-09-11T01:23:02.603Z,12.41
2022-09-11T01:26:37.769Z,12.39
2022-09-11T01:29:41.779Z,12.34
2022-09-11T01:33:06.205Z,12.31
2022-09-11T01:36:14.082Z,12.27
2022-09-11T01:39:20.223Z,12.25
2022-09-11T01:42:24.708Z,12.21
2022-09-11T01:45:27.266Z,12.19
2022-09-11T01:48:52.992Z,12.18
2022-09-11T01:51:59.071Z,12.13
2022-09-11T01:55:05.742Z,12.10
2022-09-11T01:58:17.982Z,12.07
2022-09-11T02:01:27.716Z,12.05
2022-09-11T02:04:33.957Z,12.03
2022-09-11T02:07:41.247Z,11.99
2022-09-11T02:10:52.345Z,11.93
2022-09-11T02:14:39.263Z,11.83
2022-09-11T02:17:48.225Z,11.75
2022-09-11T02:20:51.402Z,11.71
2022-09-11T02:23:55.441Z,11.69
2022-09-11T02:27:09.752Z,11.67
2022-09-11T02:30:12.713Z,11.64
2022-09-11T02:33:27.972Z,11.60
2022-09-11T02:36:32.140Z,11.55
2022-09-11T02:39:48.922Z,11.54
2022-09-11T02:43:11.845Z,11.53
2022-09-11T02:46:41.704Z,11.50
2022-09-11T02:49:53.266Z,11.49
2022-09-11T02:53:10.829Z,11.49
2022-09-11T02:56:24.012Z,11.47
2022-09-11T02:59:32.556Z,11.47
2022-09-11T03:02:41.511Z,11.43
2022-09-11T03:05:43.300Z,11.40
2022-09-11T03:08:45.686Z,11.39
2022-09-11T03:11:47.283Z,11.38
2022-09-11T03:14:49.639Z,11.37
2022-09-11T03:17:51.284Z,11.38
2022-09-11T03:20:53.021Z,11.38
2022-09-11T03:23:54.710Z,11.36
2022-09-11T03:26:56.299Z,11.37
2022-09-11T03:29:58.780Z,11.37
2022-09-11T03:33:04.219Z,11.38
2022-09-11T03:36:06.916Z,11.37
2022-09-11T03:39:08.556Z,11.38
2022-09-11T03:42:13.062Z,11.39
2022-09-11T03:45:14.995Z,11.40
2022-09-11T03:48:16.984Z,11.40
2022-09-11T03:51:18.540Z,11.42
2022-09-11T03:54:21.006Z,11.41
2022-09-11T03:57:22.556Z,11.40
2022-09-11T04:00:24.074Z,11.40
2022-09-11T04:03:25.953Z,11.38
2022-09-11T04:06:27.838Z,11.38
2022-09-11T04:09:29.869Z,11.38
2022-09-11T04:12:31.419Z,11.37
2022-09-11T04:15:32.986Z,11.37
2022-09-11T04:18:38.611Z,11.34
2022-09-11T04:21:40.645Z,11.32
2022-09-11T04:24:42.170Z,11.32
2022-09-11T04:27:43.809Z,11.31
2022-09-11T04:30:45.496Z,11.33
2022-09-11T04:33:47.333Z,11.34
2022-09-11T04:36:48.921Z,11.34
2022-09-11T04:39:50.747Z,11.35
2022-09-11T04:42:52.384Z,11.37
2022-09-11T04:46:00.779Z,11.37
2022-09-11T04:49:02.423Z,11.36
2022-09-11T04:52:06.173Z,11.38
2022-09-11T04:55:08.267Z,11.37
2022-09-11T04:58:10.044Z,11.39
2022-09-11T05:01:15.427Z,11.40
2022-09-11T05:04:21.780Z,11.41
2022-09-11T05:07:25.982Z,11.43
2022-09-11T05:10:27.500Z,11.45
2022-09-11T05:13:36.098Z,11.46
2022-09-11T05:16:38.483Z,11.45
2022-09-11T05:19:40.584Z,11.47
2022-09-11T05:22:42.264Z,11.49
2022-09-11T05:25:43.924Z,11.50
2022-09-11T05:28:46.021Z,11.52
2022-09-11T05:31:47.896Z,11.53
2022-09-11T05:34:49.861Z,11.55
2022-09-11T05:37:51.428Z,11.57
2022-09-11T05:40:53.062Z,11.61
2022-09-11T05:43:54.870Z,11.63
2022-09-11T05:46:57.042Z,11.66
2022-09-11T05:49:58.676Z,11.68
2022-09-11T05:53:00.865Z,11.70
2022-09-11T05:56:17.499Z,11.72
2022-09-11T05:59:20.377Z,11.74
2022-09-11T06:02:22.193Z,11.84
2022-09-11T06:05:23.942Z,11.91
2022-09-11T06:08:25.586Z,11.99
2022-09-11T06:11:27.284Z,12.07
2022-09-11T06:14:29.242Z,12.13
2022-09-11T06:17:30.932Z,12.21
2022-09-11T06:20:33.852Z,12.27
2022-09-11T06:23:37.179Z,12.32
2022-09-11T06:26:38.825Z,12.36
2022-09-11T06:29:40.475Z,12.40
2022-09-11T06:32:42.329Z,12.44
2022-09-11T06:35:43.917Z,12.49
2022-09-11T06:38:46.851Z,12.55
2022-09-11T06:41:48.500Z,12.61
2022-09-11T06:44:52.083Z,12.67
2022-09-11T06:47:53.727Z,12.70
2022-09-11T06:50:55.480Z,12.77
2022-09-11T06:53:58.676Z,12.83
2022-09-11T06:57:00.267Z,12.88
2022-09-11T07:00:02.794Z,12.93
2022-09-11T07:03:04.899Z,12.99
2022-09-11T07:06:06.975Z,13.05
2022-09-11T07:09:11.276Z,13.13
2022-09-11T07:12:12.828Z,13.18
2022-09-11T07:15:15.109Z,13.27
2022-09-11T07:18:18.473Z,13.44
2022-09-11T07:21:25.080Z,13.59
2022-09-11T07:24:26.921Z,13.68
2022-09-11T07:27:29.655Z,13.74
2022-09-11T07:30:32.585Z,13.85
2022-09-11T07:33:34.157Z,13.98
2022-09-11T07:36:36.027Z,14.07
2022-09-11T07:39:37.656Z,14.16
2022-09-11T07:42:39.246Z,14.25
2022-09-11T07:45:40.907Z,14.31
2022-09-11T07:48:43.189Z,14.38
2022-09-11T07:51:45.027Z,14.45
2022-09-11T07:54:47.098Z,14.49
2022-09-11T07:57:49.687Z,14.53
2022-09-11T08:00:58.124Z,14.56
2022-09-11T08:04:02.177Z,14.59
2022-09-11T08:07:03.816Z,14.63
2022-09-11T08:10:26.104Z,14.68
2022-09-11T08:13:27.771Z,14.70
2022-09-11T08:16:30.034Z,14.72
2022-09-11T08:19:32.917Z,14.74
2022-09-11T08:22:34.556Z,14.76
2022-09-11T08:25:39.420Z,14.80
2022-09-11T08:28:45.413Z,14.84
2022-09-11T08:31:47.001Z,14.89
2022-09-11T08:34:48.720Z,14.92
2022-09-11T08:37:54.734Z,14.95
2022-09-11T08:40:59.132Z,14.97
2022-09-11T08:44:26.463Z,15.00
2022-09-11T08:47:33.689Z,15.04
2022-09-11T08:50:40.138Z,15.10
2022-09-11T08:53:42.459Z,15.11
2022-09-11T08:56:45.641Z,15.14
2022-09-11T09:00:14.768Z,15.17
2022-09-11T09:03:53.191Z,15.18
2022-09-11T09:07:07.864Z,15.17
2022-09-11T09:10:43.720Z,15.16
2022-09-11T09:13:47.924Z,15.15
2022-09-11T09:17:16.970Z,15.17
2022-09-11T09:20:41.960Z,15.16
2022-09-11T09:23:51.957Z,15.19
2022-09-11T09:26:56.325Z,15.22
2022-09-11T09:30:02.142Z,15.27
2022-09-11T09:33:21.961Z,15.35
2022-09-11T09:36:31.441Z,15.42
2022-09-11T09:39:36.905Z,15.51
2022-09-11T09:43:08.475Z,15.58
2022-09-11T09:46:36.216Z,15.70
2022-09-11T09:49:38.831Z,15.77
2022-09-11T09:52:40.387Z,15.89
2022-09-11T09:55:42.857Z,15.98
2022-09-11T09:59:15.087Z,16.03
2022-09-11T10:02:40.228Z,16.06
2022-09-11T10:05:43.723Z,16.11
2022-09-11T10:08:45.337Z,16.24
2022-09-11T10:11:53.078Z,16.46
2022-09-11T10:14:58.865Z,16.68
2022-09-11T10:18:26.281Z,16.93
2022-09-11T10:21:29.755Z,17.12
2022-09-11T10:24:32.017Z,17.32
2022-09-11T10:27:39.918Z,17.52
2022-09-11T10:30:55.770Z,17.62
2022-09-11T10:33:59.851Z,17.75
2022-09-11T10:37:07.638Z,17.84
2022-09-11T10:40:21.382Z,17.92
2022-09-11T10:43:27.134Z,18.08
2022-09-11T10:46:40.150Z,18.26
2022-09-11T10:49:42.501Z,18.43
2022-09-11T10:52:53.354Z,18.51
2022-09-11T10:56:06.181Z,18.60
2022-09-11T10:59:17.708Z,18.65
2022-09-11T11:02:26.581Z,18.70
2022-09-11T11:05:49.548Z,18.82
2022-09-11T11:09:30.789Z,18.95
2022-09-11T11:12:58.582Z,19.10
2022-09-11T11:16:19.747Z,19.29
2022-09-11T11:19:41.170Z,19.43
2022-09-11T11:22:51.789Z,19.52
2022-09-11T11:26:11.745Z,19.62
2022-09-11T11:29:41.981Z,19.81
2022-09-11T11:33:01.778Z,19.96
2022-09-11T11:36:14.411Z,20.00
2022-09-11T11:39:20.828Z,20.03
2022-09-11T11:42:27.310Z,20.04
2022-09-11T11:45:39.228Z,20.07
2022-09-11T11:48:45.333Z,20.08
2022-09-11T11:51:54.265Z,20.14
2022-09-11T11:55:16.510Z,20.23
2022-09-11T11:58:18.117Z,20.24
2022-09-11T12:01:37.222Z,20.24
2022-09-11T12:04:50.736Z,20.33
2022-09-11T12:07:53.597Z,20.42
2022-09-11T12:10:59.547Z,20.52
2022-09-11T12:14:02.060Z,20.63
2022-09-11T12:17:18.978Z,20.73
2022-09-11T12:20:32.890Z,20.75
2022-09-11T12:23:57.263Z,20.78
2022-09-11T12:27:36.334Z,20.79
2022-09-11T12:31:05.127Z,20.72
2022-09-11T12:34:16.067Z,20.61
2022-09-11T12:37:33.294Z,20.57
2022-09-11T12:40:53.320Z,20.50
2022-09-11T12:43:55.147Z,20.47
2022-09-11T12:47:08.558Z,20.49
2022-09-11T12:50:22.714Z,20.48
2022-09-11T12:53:31.262Z,20.45
2022-09-11T12:56:34.934Z,20.50
2022-09-11T12:59:39.254Z,20.58
2022-09-11T13:02:46.690Z,20.66
2022-09-11T13:05:58.866Z,20.69
2022-09-11T13:09:01.731Z,20.73
2022-09-11T13:12:21.592Z,20.82
2022-09-11T13:15:43.405Z,20.89
2022-09-11T13:18:45.310Z,20.93
2022-09-11T13:21:49.750Z,20.98
2022-09-11T13:25:03.627Z,21.01
2022-09-11T13:28:06.836Z,20.94
2022-09-11T13:31:17.593Z,20.96
2022-09-11T13:34:23.444Z,20.98
2022-09-11T13:37:35.798Z,21.02
2022-09-11T13:40:43.341Z,21.05
2022-09-11T13:43:50.440Z,21.04
2022-09-11T13:46:52.518Z,21.01
2022-09-11T13:50:11.276Z,21.00
2022-09-11T13:53:13.013Z,20.92
2022-09-11T13:56:39.100Z,20.89
2022-09-11T13:59:44.779Z,20.85
2022-09-11T14:02:51.072Z,20.83
2022-09-11T14:05:55.836Z,20.79
2022-09-11T14:08:57.685Z,20.77
2022-09-11T14:12:02.759Z,20.76
2022-09-11T14:15:16.493Z,20.73
2022-09-11T14:18:26.322Z,20.71
2022-09-11T14:21:38.622Z,20.70
2022-09-11T14:24:51.099Z,20.71
2022-09-11T14:27:53.213Z,20.70
2022-09-11T14:31:11.221Z,20.69
2022-09-11T14:34:29.587Z,20.67
2022-09-11T14:37:34.672Z,20.68
2022-09-11T14:40:36.709Z,20.63
2022-09-11T14:43:38.820Z,20.56
2022-09-11T14:46:40.542Z,20.56
2022-09-11T14:49:42.184Z,20.58
2022-09-11T14:52:44.291Z,20.59
2022-09-11T14:55:46.085Z,20.56
2022-09-11T14:58:48.821Z,20.53
2022-09-11T15:01:52.340Z,20.50
2022-09-11T15:04:56.327Z,20.47
2022-09-11T15:08:00.287Z,20.41
2022-09-11T15:11:02.150Z,20.40
2022-09-11T15:14:20.351Z,20.36
2022-09-11T15:17:26.045Z,20.33
2022-09-11T15:20:27.842Z,20.30
2022-09-11T15:23:29.519Z,20.27
2022-09-11T15:26:32.421Z,20.23
2022-09-11T15:29:34.746Z,20.21
2022-09-11T15:32:37.497Z,20.19
2022-09-11T15:35:39.359Z,20.16
2022-09-11T15:38:41.737Z,20.13
2022-09-11T15:41:44.076Z,20.11
2022-09-11T15:44:46.242Z,20.09
2022-09-11T15:47:47.934Z,20.06
2022-09-11T15:51:02.104Z,20.04
2022-09-11T15:54:04.571Z,19.97
2022-09-11T15:57:07.044Z,19.94
2022-09-11T16:00:09.546Z,19.93
2022-09-11T16:03:12.100Z,19.89
2022-09-11T16:06:13.783Z,19.87
2022-09-11T16:09:23.635Z,19.85
2022-09-11T16:12:26.274Z,19.79
2022-09-11T16:15:28.024Z,19.74
2022-09-11T16:18:30.127Z,19.69
2022-09-11T16:21:31.829Z,19.68
2022-09-11T16:24:37.773Z,19.67
2022-09-11T16:27:39.769Z,19.66
2022-09-11T16:30:44.961Z,19.63
2022-09-11T16:33:48.718Z,19.59
2022-09-11T16:36:50.557Z,19.57
2022-09-11T16:39:52.717Z,19.52
2022-09-11T16:42:54.808Z,19.48
2022-09-11T16:45:56.528Z,19.43
2022-09-11T16:49:01.652Z,19.39
2022-09-11T16:52:05.156Z,19.32
2022-09-11T16:55:08.464Z,19.26
2022-09-11T16:58:10.080Z,19.19
2022-09-11T17:01:17.509Z,19.13
2022-09-11T17:04:19.139Z,19.04
2022-09-11T17:07:20.932Z,18.96
2022-09-11T17:10:22.995Z,18.87
2022-09-11T17:13:25.264Z,18.77
2022-09-11T17:16:29.673Z,18.63
2022-09-11T17:19:31.379Z,18.53
2022-09-11T17:22:33.062Z,18.44
2022-09-11T17:25:38.576Z,18.35
2022-09-11T17:28:42.039Z,18.27
2022-09-11T17:31:43.770Z,18.18
2022-09-11T17:34:47.032Z,18.11
2022-09-11T17:37:48.601Z,18.03
2022-09-11T17:40:50.468Z,17.94
2022-09-11T17:43:52.195Z,17.85
2022-09-11T17:46:56.864Z,17.75
2022-09-11T17:50:01.487Z,17.63
2022-09-11T17:53:03.238Z,17.52
2022-09-11T17:56:08.152Z,17.40
2022-09-11T17:59:10.047Z,17.30
2022-09-11T18:02:14.497Z,17.19
2022-09-11T18:05:16.678Z,17.07
2022-09-11T18:08:18.556Z,17.09
2022-09-11T18:11:20.221Z,16.96
2022-09-11T18:14:22.141Z,16.85
2022-09-11T18:17:23.804Z,16.75
2022-09-11T18:20:25.597Z,16.66
2022-09-11T18:23:27.210Z,16.58
2022-09-11T18:26:31.224Z,16.50
2022-09-11T18:29:35.621Z,16.41
2022-09-11T18:32:37.371Z,16.34
2022-09-11T18:35:39.610Z,16.26
2022-09-11T18:38:41.357Z,16.20
2022-09-11T18:41:44.376Z,16.11
2022-09-11T18:44:46.076Z,16.06
2022-09-11T18:47:52.698Z,16.00
2022-09-11T18:50:54.989Z,15.92
2022-09-11T18:53:56.926Z,15.86
2022-09-11T18:57:00.277Z,15.78
2022-09-11T19:00:02.399Z,15.73
2022-09-11T19:03:04.188Z,15.66
2022-09-11T19:06:19.901Z,15.63
2022-09-11T19:09:21.529Z,15.58
2022-09-11T19:12:23.597Z,15.52
2022-09-11T19:15:25.397Z,15.45
2022-09-11T19:18:27.334Z,15.38
2022-09-11T19:21:29.201Z,15.33
2022-09-11T19:24:31.006Z,15.26
2022-09-11T19:27:32.760Z,15.20
2022-09-11T19:30:35.069Z,15.13
2022-09-11T19:33:38.421Z,15.08
2022-09-11T19:36:41.368Z,15.03
2022-09-11T19:39:43.018Z,14.95
2022-09-11T19:42:44.593Z,14.90
2022-09-11T19:45:46.161Z,14.86
2022-09-11T19:48:48.925Z,14.82
2022-09-11T19:51:53.125Z,14.79
2022-09-11T19:54:54.731Z,14.75
2022-09-11T19:57:56.281Z,14.72
2022-09-11T20:00:59.898Z,14.62
2022-09-11T20:04:02.315Z,14.55
2022-09-11T20:07:03.982Z,14.49
2022-09-11T20:10:07.178Z,14.46
2022-09-11T20:13:09.152Z,14.42
2022-09-11T20:16:15.130Z,14.35
2022-09-11T20:19:17.397Z,14.29
2022-09-11T20:22:19.970Z,14.34
2022-09-11T20:25:22.686Z,14.35
2022-09-11T20:28:24.311Z,14.31
2022-09-11T20:31:31.926Z,14.22
2022-09-11T20:34:33.709Z,14.09
2022-09-11T20:37:35.994Z,14.05
2022-09-11T20:40:38.045Z,14.02
2022-09-11T20:43:40.540Z,13.97
2022-09-11T20:46:43.782Z,13.95
2022-09-11T20:49:45.743Z,13.94
2022-09-11T20:52:47.343Z,13.89
2022-09-11T20:55:50.025Z,13.85
2022-09-11T20:58:52.585Z,13.82
2022-09-11T21:01:54.301Z,13.75
2022-09-11T21:04:56.075Z,13.70
2022-09-11T21:07:57.681Z,13.62
2022-09-11T21:11:04.258Z,13.57
2022-09-11T21:14:07.113Z,13.54
2022-09-11T21:17:08.804Z,13.52
2022-09-11T21:20:10.597Z,13.49
2022-09-11T21:23:12.235Z,13.44
2022-09-11T21:26:15.976Z,13.39
2022-09-11T21:29:17.711Z,13.32
2022-09-11T21:32:19.265Z,13.14
2022-09-11T21:35:20.912Z,12.98
2022-09-11T21:38:25.052Z,12.92
2022-09-11T21:41:26.621Z,12.92
2022-09-11T21:44:28.241Z,12.91
2022-09-11T21:47:29.748Z,12.93
2022-09-11T21:50:31.917Z,12.91
2022-09-11T21:53:33.450Z,12.93
2022-09-11T21:56:35.049Z,12.93
2022-09-11T21:59:36.582Z,12.91
2022-09-11T22:02:38.253Z,12.87
2022-09-11T22:05:43.491Z,12.83
2022-09-11T22:08:47.143Z,12.72
2022-09-11T22:11:49.130Z,12.55
2022-09-11T22:14:52.859Z,12.47
2022-09-11T22:17:54.396Z,12.77
2022-09-11T22:21:00.285Z,12.71
2022-09-11T22:24:02.064Z,12.63
2022-09-11T22:27:03.825Z,12.56
2022-09-11T22:30:07.047Z,12.48
2022-09-11T22:33:08.714Z,12.32
2022-09-11T22:36:12.831Z,12.16
2022-09-11T22:39:15.445Z,12.02
2022-09-11T22:42:17.042Z,11.98
2022-09-11T22:45:18.792Z,11.93
2022-09-11T22:48:20.508Z,11.90
2022-09-11T22:51:22.405Z,11.88
2022-09-11T22:54:24.072Z,11.84
2022-09-11T22:57:28.968Z,11.78
2022-09-11T23:00:30.837Z,11.74
2022-09-11T23:03:32.381Z,11.72
2022-09-11T23:06:52.557Z,11.69
2022-09-11T23:09:54.079Z,11.67
2022-09-11T23:12:55.618Z,11.64
2022-09-11T23:15:57.877Z,11.58
2022-09-11T23:19:02.448Z,11.56
2022-09-11T23:22:04.043Z,11.48
2022-09-11T23:25:06.366Z,11.38
2022-09-11T23:28:07.977Z,11.28
2022-09-11T23:31:20.391Z,11.18
2022-09-11T23:34:22.018Z,11.15
2022-09-11T23:37:23.525Z,11.14
2022-09-11T23:40:25.213Z,11.15
2022-09-11T23:43:26.777Z,11.15
2022-09-11T23:46:28.400Z,11.14
2022-09-11T23:49:33.094Z,11.11
2022-09-11T23:52:39.440Z,11.05
2022-09-11T23:55:42.462Z,10.99
2022-09-11T23:58:45.732Z,10.97
